Time;durP1;ratioP1;P1;durP2;ratioP2;P2;SDS_P1;SDS_P2;PMS_P1;PMS_P2;Temp;Humidity;BMP_temperature;BMP_pressure;BME280_temperature;BME280_humidity;BME280_pressure;Samples;Min_cycle;Max_cycle;Signal;HPM_P1;HPM_P2
2023/04/01 00:01:47;;;;;;;21.17;10.60;;;;;;;3.10;79.09;97676.91;5071131;28;20490;-61
2023/04/01 00:04:13;;;;;;;18.35;10.55;;;;;;;3.06;78.60;97682.84;5072446;28;20144;-61
2023/04/01 00:06:38;;;;;;;17.50;9.82;;;;;;;3.09;78.86;97679.75;5054460;28;20051;-59
2023/04/01 00:09:04;;;;;;;19.17;10.20;;;;;;;3.10;78.80;97676.91;5072475;28;20070;-61
2023/04/01 00:11:30;;;;;;;19.45;9.52;;;;;;;3.14;78.26;97685.09;5070850;28;20093;-62
2023/04/01 00:13:55;;;;;;;16.23;9.57;;;;;;;3.16;78.40;97681.22;5070871;28;20056;-61
2023/04/01 00:16:21;;;;;;;17.30;9.52;;;;;;;3.18;78.27;97684.41;5070861;28;20044;-62
2023/04/01 00:18:49;;;;;;;16.40;9.20;;;;;;;3.18;77.95;97681.00;5072046;28;20147;-61
2023/04/01 00:21:15;;;;;;;17.65;9.27;;;;;;;3.20;78.21;97676.31;5072519;28;20041;-61
2023/04/01 00:23:41;;;;;;;19.02;10.40;;;;;;;3.21;78.49;97674.50;5072090;28;20052;-62
2023/04/01 00:26:07;;;;;;;16.45;9.43;;;;;;;3.21;78.19;97672.69;5053992;28;20128;-63
2023/04/01 00:28:34;;;;;;;16.67;9.70;;;;;;;3.21;78.31;97680.56;5070783;28;20059;-60
2023/04/01 00:31:04;;;;;;;16.55;9.30;;;;;;;3.08;78.26;97676.34;5070453;28;20036;-62
2023/04/01 00:33:30;;;;;;;18.75;10.05;;;;;;;3.00;78.67;97671.50;5070504;28;20410;-60
2023/04/01 00:35:56;;;;;;;15.63;9.40;;;;;;;3.03;79.07;97670.22;5070617;28;20093;-62
2023/04/01 00:38:21;;;;;;;18.83;10.23;;;;;;;3.00;78.74;97673.28;5069768;28;20388;-60
2023/04/01 00:40:47;;;;;;;18.65;9.27;;;;;;;3.05;79.63;97666.34;5071636;28;20104;-65
2023/04/01 00:43:19;;;;;;;17.58;10.00;;;;;;;3.06;79.35;97670.56;5053592;28;20067;-62
2023/04/01 00:45:47;;;;;;;15.48;9.27;;;;;;;3.08;78.80;97660.63;5037554;28;20032;-61
2023/04/01 00:48:20;;;;;;;16.98;9.43;;;;;;;3.10;79.11;97665.66;5036976;28;20405;-62
2023/04/01 00:50:49;;;;;;;16.55;9.48;;;;;;;3.11;79.28;97664.63;5069878;28;20048;-60
2023/04/01 00:53:16;;;;;;;18.88;10.07;;;;;;;3.10;79.44;97665.66;5069797;28;20421;-62
2023/04/01 00:55:46;;;;;;;19.15;9.57;;;;;;;3.13;79.17;97662.56;5070257;28;20054;-62
2023/04/01 00:58:15;;;;;;;16.10;9.00;;;;;;;3.13;78.55;97667.81;5053588;28;20140;-62
2023/04/01 01:00:40;;;;;;;15.80;9.27;;;;;;;3.14;78.97;97659.72;5070242;28;20051;-60
2023/04/01 01:03:07;;;;;;;17.30;8.88;;;;;;;3.07;78.95;97659.06;5050122;28;20123;-62
2023/04/01 01:05:55;;;;;;;19.35;10.00;;;;;;;2.91;79.10;97657.13;5064916;28;20036;-63
2023/04/01 01:08:31;;;;;;;20.05;10.18;;;;;;;2.89;79.84;97662.63;5038330;28;20087;-61
2023/04/01 01:10:57;;;;;;;17.08;8.63;;;;;;;2.93;79.29;97658.50;5070266;28;20032;-62
2023/04/01 01:13:33;;;;;;;18.00;9.15;;;;;;;3.00;79.04;97661.03;5070145;28;20398;-60
2023/04/01 01:16:05;;;;;;;17.48;9.60;;;;;;;3.05;79.19;97661.09;5053590;28;20141;-63
2023/04/01 01:18:40;;;;;;;16.17;8.88;;;;;;;3.13;78.89;97659.97;5070192;28;20044;-60
2023/04/01 01:21:20;;;;;;;17.48;10.38;;;;;;;3.15;78.34;97660.53;5071105;28;20091;-62
2023/04/01 01:24:10;;;;;;;19.33;9.60;;;;;;;3.15;78.05;97663.16;5053259;28;20053;-61
2023/04/01 01:26:41;;;;;;;18.77;10.35;;;;;;;3.18;78.41;97671.34;5071239;28;20287;-61
2023/04/01 01:29:25;;;;;;;;;;;;;;;3.21;78.21;97664.84;5070712;28;20082;-60
2023/04/01 01:32:30;;;;;;;19.92;9.70;;;;;;;3.20;78.00;97676.31;5070072;28;19921;-61
2023/04/01 01:35:17;;;;;;;15.85;8.90;;;;;;;3.18;77.89;97668.72;5069827;28;20576;-61
2023/04/01 01:37:44;;;;;;;15.40;9.35;;;;;;;3.18;78.41;97670.53;5069473;28;20048;-62
2023/04/01 01:40:11;;;;;;;17.40;9.02;;;;;;;3.13;77.86;97667.81;5053099;28;20083;-63
2023/04/01 01:42:41;;;;;;;16.85;9.70;;;;;;;3.07;78.49;97666.91;5053271;28;20154;-62
2023/04/01 01:45:09;;;;;;;16.27;9.85;;;;;;;3.11;78.85;97665.41;5069454;28;20048;-60
2023/04/01 01:47:35;;;;;;;16.02;8.98;;;;;;;3.11;78.46;97668.03;5052963;28;20049;-61
2023/04/01 01:50:03;;;;;;;22.48;10.38;;;;;;;3.14;78.86;97672.81;5052867;28;20405;-62
2023/04/01 01:52:29;;;;;;;17.92;9.32;;;;;;;3.15;78.10;97673.63;5052757;28;20094;-61
2023/04/01 01:54:57;;;;;;;19.00;9.82;;;;;;;3.15;78.52;97663.16;5069562;28;20056;-61
2023/04/01 01:57:36;;;;;;;18.87;9.87;;;;;;;3.20;78.24;97668.47;5069485;28;20525;-60
2023/04/01 02:00:12;;;;;;;19.70;9.90;;;;;;;3.23;78.09;97665.38;5037023;28;20425;-61
2023/04/01 02:02:46;;;;;;;17.88;8.57;;;;;;;3.14;77.96;97669.41;5054356;28;20279;-62
2023/04/01 02:05:17;;;;;;;15.18;8.80;;;;;;;3.14;78.37;97661.53;5073073;28;20421;-62
2023/04/01 02:07:47;;;;;;;19.27;9.52;;;;;;;3.17;78.32;97659.25;5073418;28;20049;-60
2023/04/01 02:10:13;;;;;;;20.10;10.95;;;;;;;3.15;78.00;97669.19;5056781;28;20098;-60
2023/04/01 02:12:39;;;;;;;17.20;9.02;;;;;;;3.14;78.28;97669.41;5073286;28;20036;-62
2023/04/01 02:15:10;;;;;;;18.40;8.82;;;;;;;3.13;78.63;97662.56;5039938;28;20036;-62
2023/04/01 02:17:42;;;;;;;18.77;10.20;;;;;;;3.08;78.25;97672.94;5056474;28;20045;-61
2023/04/01 02:20:15;;;;;;;16.75;8.98;;;;;;;3.00;78.45;97670.66;5039878;28;20052;-62
2023/04/01 02:22:45;;;;;;;16.38;9.18;;;;;;;2.93;78.62;97678.66;5073106;28;20123;-59
2023/04/01 02:25:14;;;;;;;20.33;10.18;;;;;;;2.97;78.97;97674.53;5056565;28;20040;-61
2023/04/01 02:27:41;;;;;;;16.00;8.38;;;;;;;2.99;79.32;97677.72;5073023;28;20090;-63
2023/04/01 02:30:07;;;;;;;18.20;9.50;;;;;;;3.03;78.84;97678.88;5056309;28;20051;-62
2023/04/01 02:32:34;;;;;;;20.05;10.52;;;;;;;3.09;79.23;97675.34;5039440;28;20033;-62
2023/04/01 02:35:03;;;;;;;20.90;10.60;;;;;;;3.05;78.48;97678.63;5072835;28;20052;-61
2023/04/01 02:37:29;;;;;;;15.32;8.95;;;;;;;3.05;78.81;97682.03;5072649;28;20039;-61
2023/04/01 02:40:00;;;;;;;16.70;9.55;;;;;;;3.06;79.21;97686.28;5073932;28;20044;-62
2023/04/01 02:42:26;;;;;;;17.25;9.80;;;;;;;3.09;79.41;97682.38;5056438;28;20052;-63
2023/04/01 02:44:51;;;;;;;18.50;10.05;;;;;;;3.12;79.11;97692.41;5072613;28;20047;-62
2023/04/01 02:47:17;;;;;;;19.45;11.07;;;;;;;3.14;78.63;97685.09;5072865;28;20048;-60
2023/04/01 02:49:43;;;;;;;23.55;11.05;;;;;;;3.11;78.70;97693.41;5039068;28;20072;-64
2023/04/01 02:52:08;;;;;;;20.45;10.52;;;;;;;3.05;78.54;97692.50;5072293;28;20523;-61
2023/04/01 02:54:34;;;;;;;21.00;11.45;;;;;;;3.11;79.33;97693.41;5072198;28;20533;-61
2023/04/01 02:57:00;;;;;;;24.80;11.18;;;;;;;3.06;78.27;97688.88;5072780;28;20411;-61
2023/04/01 02:59:25;;;;;;;22.55;10.95;;;;;;;3.02;78.58;97692.19;5072489;28;20053;-62
2023/04/01 03:01:51;;;;;;;22.67;11.48;;;;;;;2.99;78.79;97696.06;5073587;28;20098;-60
2023/04/01 03:04:17;;;;;;;25.02;12.52;;;;;;;2.98;79.08;97697.09;5055698;28;20147;-61
2023/04/01 03:06:42;;;;;;;27.05;12.77;;;;;;;3.05;79.35;97695.13;5035422;28;20082;-62
2023/04/01 03:09:08;;;;;;;26.40;12.35;;;;;;;3.09;79.33;97696.28;5068996;28;20049;-61
2023/04/01 03:11:35;;;;;;;23.23;11.95;;;;;;;3.09;78.74;97691.03;5051492;28;20059;-61
2023/04/01 03:14:01;;;;;;;21.85;11.50;;;;;;;3.09;78.73;97692.84;5051836;28;20067;-62
2023/04/01 03:16:27;;;;;;;20.13;10.68;;;;;;;3.12;78.86;97697.66;5051680;28;20682;-61
2023/04/01 03:18:53;;;;;;;21.15;11.80;;;;;;;3.13;79.34;97701.84;5035244;28;20149;-61
2023/04/01 03:21:23;;;;;;;24.20;12.02;;;;;;;3.16;79.52;97704.78;5052179;28;20041;-62
2023/04/01 03:23:49;;;;;;;33.67;15.50;;;;;;;3.20;78.90;97705.13;5052241;28;20406;-61
2023/04/01 03:26:16;;;;;;;26.77;13.93;;;;;;;3.21;79.34;97706.75;5052990;28;20114;-63
2023/04/01 03:28:42;;;;;;;27.10;14.18;;;;;;;3.26;78.91;97711.25;5035429;28;20397;-62
2023/04/01 03:31:09;;;;;;;30.70;15.77;;;;;;;3.29;79.20;97701.13;5052946;28;20040;-62
2023/04/01 03:33:41;;;;;;;22.63;11.82;;;;;;;3.30;78.21;97701.94;5051882;28;20449;-63
2023/04/01 03:36:08;;;;;;;23.00;11.73;;;;;;;3.31;78.56;97704.31;5051665;28;20581;-62
2023/04/01 03:38:35;;;;;;;21.98;10.93;;;;;;;3.30;78.11;97705.34;5053311;28;20052;-62
2023/04/01 03:41:00;;;;;;;22.55;11.57;;;;;;;3.28;78.38;97714.47;5068665;28;20064;-63
2023/04/01 03:43:26;;;;;;;22.33;11.82;;;;;;;3.26;78.35;97719.13;5051348;28;20072;-62
2023/04/01 03:45:54;;;;;;;21.02;11.30;;;;;;;3.31;78.75;97727.09;5051470;28;20533;-63
2023/04/01 03:48:20;;;;;;;22.27;11.70;;;;;;;3.31;78.42;97720.03;5051362;28;20048;-61
2023/04/01 03:50:46;;;;;;;24.25;12.25;;;;;;;3.32;77.83;97731.28;5052655;28;20090;-62
2023/04/01 03:53:15;;;;;;;23.30;12.02;;;;;;;3.26;78.49;97726.97;5067890;28;20078;-62
2023/04/01 03:55:42;;;;;;;25.98;12.30;;;;;;;3.30;78.55;97731.53;5068135;28;20045;-62
2023/04/01 03:58:08;;;;;;;23.48;12.20;;;;;;;3.34;78.32;97735.28;5051076;28;20041;-62
2023/04/01 04:00:34;;;;;;;25.10;12.23;;;;;;;3.33;77.99;97735.53;5068094;28;20036;-63
2023/04/01 04:03:01;;;;;;;21.08;11.90;;;;;;;3.27;78.38;97742.47;5034352;28;20048;-62
2023/04/01 04:05:31;;;;;;;24.13;12.35;;;;;;;3.31;78.54;97742.81;5070815;28;20072;-62
2023/04/01 04:07:57;;;;;;;24.45;13.43;;;;;;;3.36;78.69;97746.31;5070817;28;20457;-62
2023/04/01 04:10:24;;;;;;;24.25;12.57;;;;;;;3.33;78.58;97733.69;5071931;28;20098;-61
2023/04/01 04:12:51;;;;;;;23.33;12.75;;;;;;;3.44;77.88;97744.38;5070849;28;20091;-62
2023/04/01 04:15:17;;;;;;;28.25;14.13;;;;;;;3.42;77.35;97747.22;5054002;28;20135;-62
2023/04/01 04:17:45;;;;;;;25.75;13.48;;;;;;;3.41;78.14;97749.06;5070591;28;20040;-61
2023/04/01 04:20:11;;;;;;;25.33;13.50;;;;;;;3.48;78.15;97753.38;5020995;28;20088;-62
2023/04/01 04:22:37;;;;;;;24.45;13.23;;;;;;;3.48;77.41;97762.03;5053975;28;20060;-62
2023/04/01 04:25:06;;;;;;;26.45;14.38;;;;;;;3.46;77.33;97758.81;5070372;28;20113;-63
2023/04/01 04:27:32;;;;;;;26.35;13.35;;;;;;;3.44;77.85;97755.63;5069699;28;20098;-63
2023/04/01 04:30:07;;;;;;;27.75;13.90;;;;;;;3.47;78.04;97759.63;5070565;28;20546;-61
2023/04/01 04:32:33;;;;;;;25.65;13.75;;;;;;;3.53;77.54;97756.88;5070787;28;20449;-60
2023/04/01 04:34:59;;;;;;;22.15;12.15;;;;;;;3.64;77.79;97768.34;5037520;28;20046;-62
2023/04/01 04:37:25;;;;;;;23.67;12.90;;;;;;;3.62;76.57;97765.97;5070220;28;20052;-64
2023/04/01 04:39:52;;;;;;;24.90;13.68;;;;;;;3.67;77.59;97764.47;5070402;28;20040;-63
2023/04/01 04:42:18;;;;;;;24.55;12.70;;;;;;;3.59;77.63;97763.81;5054042;28;20409;-64
2023/04/01 04:44:44;;;;;;;24.90;13.48;;;;;;;3.68;76.95;97771.28;5070813;28;20044;-63
2023/04/01 04:47:10;;;;;;;26.30;13.23;;;;;;;3.46;76.87;97731.84;5053491;28;20520;-62
2023/04/01 04:49:36;;;;;;;24.85;13.43;;;;;;;3.63;76.99;97772.78;5053905;28;20055;-63
2023/04/01 04:52:07;;;;;;;25.15;13.60;;;;;;;3.57;78.00;97765.88;5070051;28;20047;-63
2023/04/01 04:54:32;;;;;;;32.25;14.60;;;;;;;3.76;77.50;97784.03;5070510;28;20044;-63
2023/04/01 04:57:00;;;;;;;28.75;14.75;;;;;;;3.85;77.18;97788.72;5053776;28;20051;-61
2023/04/01 04:59:30;;;;;;;30.58;13.98;;;;;;;3.96;77.06;97781.03;5053968;28;20040;-63
2023/04/01 05:02:10;;;;;;;24.55;12.27;;;;;;;4.06;76.78;97786.47;5068191;28;20485;-63
2023/04/01 05:04:36;;;;;;;24.60;11.77;;;;;;;4.10;76.55;97785.75;5068094;28;20063;-61
2023/04/01 05:07:03;;;;;;;32.40;13.07;;;;;;;4.20;77.43;97792.19;5047983;28;20048;-61
2023/04/01 05:09:29;;;;;;;26.90;13.07;;;;;;;4.29;76.74;97794.22;5048962;28;20140;-63
2023/04/01 05:11:55;;;;;;;25.88;13.43;;;;;;;4.36;76.52;97795.91;5066257;28;20048;-65
2023/04/01 05:14:22;;;;;;;21.83;12.35;;;;;;;4.38;76.34;97796.44;5068406;28;20080;-63
2023/04/01 05:17:01;;;;;;;20.75;11.77;;;;;;;4.44;75.93;97795.50;5067745;28;20509;-62
2023/04/01 05:19:27;;;;;;;21.25;11.43;;;;;;;4.50;75.01;97797.19;5050486;28;20057;-62
2023/04/01 05:21:53;;;;;;;20.80;11.68;;;;;;;4.50;75.03;97798.00;5063432;28;20555;-62
2023/04/01 05:24:19;;;;;;;25.20;12.82;;;;;;;4.63;74.45;97810.00;5062620;28;20055;-62
2023/04/01 05:26:45;;;;;;;22.52;11.18;;;;;;;4.64;74.84;97803.72;5052622;28;20548;-62
2023/04/01 05:29:11;;;;;;;20.80;11.15;;;;;;;4.69;74.85;97809.06;5070008;28;20520;-62
2023/04/01 05:31:38;;;;;;;20.90;11.05;;;;;;;4.69;75.21;97811.69;5051527;28;20068;-62
2023/04/01 05:34:04;;;;;;;17.70;10.75;;;;;;;4.75;74.65;97809.94;5046157;28;20127;-62
2023/04/01 05:36:31;;;;;;;19.60;10.48;;;;;;;4.75;74.02;97808.09;5049710;28;20045;-61
2023/04/01 05:38:58;;;;;;;18.65;11.07;;;;;;;4.77;74.45;97808.69;5052771;28;20047;-61
2023/04/01 05:41:26;;;;;;;18.20;10.32;;;;;;;4.81;73.43;97805.56;5037421;28;20499;-60
2023/04/01 05:43:52;;;;;;;17.88;10.75;;;;;;;4.80;73.70;97804.00;5055218;28;20044;-63
2023/04/01 05:46:47;;;;;;;17.23;10.43;;;;;;;4.80;73.46;97802.16;5052767;28;20502;-63
2023/04/01 05:49:21;;;;;;;20.10;10.70;;;;;;;4.87;73.54;97809.88;5053833;28;20506;-61
2023/04/01 05:51:49;;;;;;;18.88;10.57;;;;;;;4.92;73.41;97812.59;5054665;28;20486;-63
2023/04/01 05:54:14;;;;;;;16.02;9.73;;;;;;;4.95;72.59;97812.09;5053746;28;20044;-61
2023/04/01 05:56:41;;;;;;;15.45;9.48;;;;;;;5.01;73.74;97813.75;5053791;28;20040;-62
2023/04/01 05:59:07;;;;;;;18.90;11.23;;;;;;;5.01;73.03;97821.66;5053630;28;20514;-62
2023/04/01 06:01:32;;;;;;;17.33;9.18;;;;;;;5.09;72.06;97823.88;5053138;28;20045;-62
2023/04/01 06:03:58;;;;;;;20.45;9.95;;;;;;;5.04;72.43;97830.88;5054791;28;20060;-61
2023/04/01 06:06:27;;;;;;;16.33;9.63;;;;;;;5.07;72.97;97823.31;5066719;28;20105;-61
2023/04/01 06:09:16;;;;;;;16.67;9.43;;;;;;;5.23;72.55;97827.78;5073433;28;20048;-62
2023/04/01 06:12:07;;;;;;;17.30;9.98;;;;;;;5.43;73.02;97832.50;5057455;28;20052;-62
2023/04/01 06:15:04;;;;;;;14.95;8.48;;;;;;;5.67;71.55;97832.28;5053464;28;20111;-62
2023/04/01 06:17:56;;;;;;;14.77;8.77;;;;;;;5.85;69.88;97829.38;5036912;28;20065;-62
2023/04/01 06:20:52;;;;;;;14.18;8.75;;;;;;;6.02;70.79;97829.31;5053216;28;20102;-61
2023/04/01 06:23:33;;;;;;;18.20;8.55;;;;;;;6.12;68.65;97832.09;5026362;28;20068;-62
2023/04/01 06:26:17;;;;;;;19.20;10.32;;;;;;;6.19;68.16;97831.09;5052946;28;20106;-61
2023/04/01 06:28:58;;;;;;;16.10;8.98;;;;;;;6.36;69.09;97829.16;5053128;28;20057;-63
2023/04/01 06:31:36;;;;;;;15.63;9.02;;;;;;;6.50;68.58;97835.63;5052931;28;20045;-61
2023/04/01 06:34:20;;;;;;;15.73;9.55;;;;;;;6.66;66.98;97835.78;5052805;28;20094;-62
2023/04/01 06:36:54;;;;;;;14.52;9.13;;;;;;;6.72;66.32;97837.41;5052702;28;20048;-62
2023/04/01 06:39:26;;;;;;;16.00;9.43;;;;;;;6.85;66.48;97842.25;5053034;28;20052;-62
2023/04/01 06:42:11;;;;;;;15.00;9.40;;;;;;;6.92;64.78;97847.31;5035963;28;20114;-62
2023/04/01 06:44:48;;;;;;;13.93;8.70;;;;;;;6.85;65.57;97833.56;5052679;28;20044;-61
2023/04/01 06:47:44;;;;;;;16.35;9.07;;;;;;;7.02;65.05;97853.44;5054015;28;20137;-62
2023/04/01 06:51:00;;;;;;;14.10;8.68;;;;;;;6.96;64.86;97865.00;5052703;28;20045;-63
2023/04/01 06:53:53;;;;;;;14.57;8.38;;;;;;;7.03;65.13;97864.81;5053814;28;20052;-63
2023/04/01 06:56:59;;;;;;;11.90;8.18;;;;;;;7.17;65.07;97859.88;5071067;28;20059;-62
2023/04/01 06:59:32;;;;;;;11.80;7.93;;;;;;;7.31;65.18;97862.91;5035912;28;20505;-62
2023/04/01 07:02:10;;;;;;;11.02;7.07;;;;;;;7.40;64.00;97859.53;5052361;28;20211;-63
2023/04/01 07:04:44;;;;;;;11.60;7.70;;;;;;;7.48;63.66;97866.19;5035562;28;20640;-62
2023/04/01 07:07:35;;;;;;;12.35;7.57;;;;;;;7.50;63.45;97867.50;5051837;28;20083;-62
2023/04/01 07:10:09;;;;;;;11.60;7.50;;;;;;;7.45;63.50;97869.31;5035895;28;20049;-63
2023/04/01 07:13:05;;;;;;;12.13;7.63;;;;;;;7.53;62.82;97868.03;5052357;28;20045;-62
2023/04/01 07:16:15;;;;;;;14.18;9.10;;;;;;;7.55;62.22;97872.00;5052419;28;20414;-62
2023/04/01 07:18:50;;;;;;;12.20;8.02;;;;;;;7.50;62.71;97869.38;5035413;28;20048;-63
2023/04/01 07:21:25;;;;;;;15.90;9.25;;;;;;;7.54;62.20;97869.66;5051897;28;20057;-62
2023/04/01 07:23:54;;;;;;;16.00;9.55;;;;;;;7.59;62.61;97867.84;5052004;28;20059;-60
2023/04/01 07:26:32;;;;;;;16.75;9.90;;;;;;;7.61;63.61;97872.84;5051945;28;20049;-62
2023/04/01 07:29:13;;;;;;;16.27;9.98;;;;;;;7.67;63.57;97874.44;5020454;28;20053;-61
2023/04/01 07:32:34;;;;;;;16.15;9.13;;;;;;;7.80;62.40;97879.28;5051038;28;20041;-63
2023/04/01 07:35:18;;;;;;;14.85;9.23;;;;;;;7.92;62.19;97876.44;5033294;28;20048;-64
2023/04/01 07:38:18;;;;;;;17.65;9.57;;;;;;;8.05;61.83;97878.59;5036037;28;20059;-62
2023/04/01 07:40:49;;;;;;;16.27;9.27;;;;;;;8.13;61.49;97880.75;5051467;28;20495;-62
2023/04/01 07:43:19;;;;;;;;;;;;;;;8.27;60.61;97885.56;5057622;28;20036;-60
2023/04/01 07:46:30;;;;;;;16.30;10.40;;;;;;;8.35;60.85;97888.50;5055734;28;19920;-63
2023/04/01 07:48:55;;;;;;;16.98;9.85;;;;;;;8.46;60.56;97886.69;5062279;28;20067;-60
2023/04/01 07:51:33;;;;;;;20.67;10.73;;;;;;;8.57;59.90;97895.44;5070030;28;20041;-62
2023/04/01 07:54:12;;;;;;;18.42;10.18;;;;;;;8.70;60.29;97899.44;5071459;28;20052;-61
2023/04/01 07:56:45;;;;;;;15.77;9.50;;;;;;;8.74;59.21;97898.66;5070986;28;20067;-62
2023/04/01 07:59:50;;;;;;;15.13;9.27;;;;;;;8.77;58.98;97895.50;5055083;28;20093;-61
2023/04/01 08:03:02;;;;;;;14.85;9.15;;;;;;;8.89;58.52;97902.38;5053575;28;20481;-62
2023/04/01 08:05:32;;;;;;;15.90;9.80;;;;;;;8.91;58.73;97893.13;5063194;28;20061;-61
2023/04/01 08:08:20;;;;;;;17.05;10.43;;;;;;;9.02;58.16;97899.22;5071063;28;20048;-63
2023/04/01 08:11:06;;;;;;;16.55;8.50;;;;;;;9.03;56.64;97893.69;5071308;28;20409;-62
2023/04/01 08:14:12;;;;;;;12.65;8.45;;;;;;;9.15;57.62;97903.19;5072363;28;20139;-63
2023/04/01 08:17:32;;;;;;;15.85;9.65;;;;;;;9.17;57.01;97906.34;5069837;28;20048;-62
2023/04/01 08:20:23;;;;;;;18.58;9.70;;;;;;;9.26;57.61;97915.34;5054054;28;20059;-61
2023/04/01 08:22:55;;;;;;;19.23;9.65;;;;;;;9.37;56.08;97919.56;5049217;28;20040;-62
2023/04/01 08:25:28;;;;;;;15.70;9.88;;;;;;;9.39;55.69;97912.19;5054531;28;20052;-62
2023/04/01 08:28:08;;;;;;;18.35;10.30;;;;;;;9.38;56.06;97910.56;5037477;28;20044;-61
2023/04/01 08:30:48;;;;;;;18.98;9.95;;;;;;;9.48;55.57;97912.44;5070052;28;20094;-62
2023/04/01 08:33:22;;;;;;;16.02;9.68;;;;;;;9.39;55.12;97916.69;5034171;28;20047;-62
2023/04/01 08:36:07;;;;;;;19.65;9.98;;;;;;;9.38;54.99;97917.72;5050663;28;20051;-62
2023/04/01 08:38:40;;;;;;;17.65;9.82;;;;;;;9.43;54.44;97915.88;5043882;28;20045;-60
2023/04/01 08:41:35;;;;;;;20.60;10.43;;;;;;;9.41;54.35;97909.25;5012264;28;20044;-61
2023/04/01 08:44:44;;;;;;;17.85;10.85;;;;;;;9.26;54.44;97913.50;5047686;28;20507;-61
2023/04/01 08:47:23;;;;;;;17.45;8.68;;;;;;;9.13;54.66;97913.25;5046925;28;20098;-63
2023/04/01 08:50:06;;;;;;;18.42;9.85;;;;;;;8.96;54.46;97913.47;5048683;28;20048;-62
2023/04/01 08:53:08;;;;;;;16.58;9.70;;;;;;;8.75;56.13;97915.28;5051836;28;20109;-61
2023/04/01 08:55:45;;;;;;;17.92;9.07;;;;;;;8.54;55.28;97912.59;5029251;28;20072;-63
2023/04/01 08:58:35;;;;;;;15.43;8.68;;;;;;;8.50;55.86;97916.00;5068741;28;20044;-61
2023/04/01 09:01:23;;;;;;;;;;;;;;;8.48;55.35;97921.56;5068677;28;20094;-63
2023/04/01 09:03:58;;;;;;;18.35;9.77;;;;;;;8.37;56.53;97922.56;5068654;28;20381;-61
2023/04/01 09:06:50;;;;;;;15.65;9.30;;;;;;;8.51;57.09;97928.19;5068081;28;20060;-65
2023/04/01 09:09:37;;;;;;;23.52;9.65;;;;;;;8.51;57.18;97928.19;5052158;28;20044;-63
2023/04/01 09:12:03;;;;;;;17.20;8.93;;;;;;;8.53;55.79;97926.88;5067452;28;20518;-63
2023/04/01 09:15:05;;;;;;;14.65;8.60;;;;;;;8.47;55.17;97937.66;5067980;28;20055;-61
2023/04/01 09:17:36;;;;;;;16.08;8.07;;;;;;;8.54;56.25;97943.50;5067505;28;20103;-62
2023/04/01 09:20:27;;;;;;;13.95;8.00;;;;;;;8.46;55.08;97936.88;5048650;28;20060;-63
2023/04/01 09:23:15;;;;;;;15.18;8.32;;;;;;;8.52;55.01;97933.19;5050705;28;20040;-64
2023/04/01 09:25:50;;;;;;;12.68;7.97;;;;;;;8.46;54.50;97944.00;5050494;28;20418;-62
2023/04/01 09:28:39;;;;;;;12.65;7.40;;;;;;;8.44;54.87;97948.75;5066519;28;20048;-62
2023/04/01 09:31:23;;;;;;;14.20;8.07;;;;;;;8.32;55.04;97941.78;5035352;28;20443;-62
2023/04/01 09:34:07;;;;;;;12.48;7.38;;;;;;;8.15;55.94;97946.50;5068196;28;20135;-62
2023/04/01 09:37:36;;;;;;;13.18;7.55;;;;;;;8.17;55.68;97947.78;5063706;28;20695;-60
2023/04/01 09:40:32;;;;;;;11.77;6.95;;;;;;;8.35;54.83;97957.16;5048748;28;20041;-61
2023/04/01 09:43:05;;;;;;;17.90;8.90;;;;;;;8.31;54.65;97957.91;5066432;28;20040;-62
2023/04/01 09:45:35;;;;;;;20.33;8.70;;;;;;;8.24;55.70;97954.72;5052421;28;20068;-63
2023/04/01 09:48:30;;;;;;;17.00;8.90;;;;;;;8.18;55.29;97952.03;5070311;28;20112;-61
2023/04/01 09:51:15;;;;;;;22.70;10.00;;;;;;;8.24;56.28;97960.00;5034698;28;20044;-64
2023/04/01 09:54:01;;;;;;;14.55;9.25;;;;;;;8.38;55.81;97967.22;5068966;28;20044;-62
2023/04/01 09:56:50;;;;;;;16.67;9.10;;;;;;;8.59;55.07;97969.94;5043165;28;20044;-61
2023/04/01 09:59:35;;;;;;;17.23;8.40;;;;;;;8.67;55.00;97969.41;5048151;28;20124;-61
2023/04/01 10:02:38;;;;;;;20.85;9.52;;;;;;;8.96;55.07;97971.63;5048891;28;20091;-62
2023/04/01 10:05:48;;;;;;;19.67;9.25;;;;;;;9.26;54.91;97976.94;5032786;28;20120;-63
2023/04/01 10:08:41;;;;;;;15.25;8.70;;;;;;;9.38;53.03;97963.47;5048881;28;20555;-62
2023/04/01 10:11:13;;;;;;;17.38;9.10;;;;;;;9.45;54.49;97969.31;5032465;28;20048;-63
2023/04/01 10:13:58;;;;;;;16.95;9.13;;;;;;;9.60;53.65;97973.00;5049060;28;20053;-61
2023/04/01 10:16:49;;;;;;;17.85;9.63;;;;;;;9.69;54.08;97977.50;5048916;28;20048;-62
2023/04/01 10:19:53;;;;;;;19.67;9.45;;;;;;;9.75;54.22;97981.72;5048334;28;20095;-62
2023/04/01 10:22:40;;;;;;;21.30;10.15;;;;;;;9.59;52.23;97982.00;5048486;28;20425;-63
2023/04/01 10:25:37;;;;;;;18.35;9.30;;;;;;;9.40;52.78;97987.03;5051515;28;20052;-63
2023/04/01 10:28:24;;;;;;;18.70;8.50;;;;;;;9.26;52.35;97989.38;5022438;28;20379;-62
2023/04/01 10:31:41;;;;;;;13.93;7.75;;;;;;;9.15;52.59;97993.88;5049812;28;20509;-61
2023/04/01 10:34:39;;;;;;;13.57;7.78;;;;;;;9.02;53.85;97999.66;5072174;28;20047;-61
2023/04/01 10:37:42;;;;;;;15.25;8.85;;;;;;;9.09;52.92;97997.56;5055990;28;20059;-63
2023/04/01 10:40:28;;;;;;;16.85;8.40;;;;;;;9.01;55.25;97998.06;5072270;28;20074;-62
2023/04/01 10:43:40;;;;;;;14.30;7.57;;;;;;;9.08;52.81;97994.09;5072285;28;20445;-61
2023/04/01 10:46:33;;;;;;;16.05;8.40;;;;;;;9.38;51.80;97992.56;5039887;28;20572;-62
2023/04/01 10:49:27;;;;;;;13.35;7.07;;;;;;;9.45;50.77;97992.31;5072215;28;20048;-62
2023/04/01 10:52:04;;;;;;;17.75;8.50;;;;;;;9.28;52.11;97998.63;5072248;28;20056;-62
2023/04/01 10:54:57;;;;;;;14.90;7.75;;;;;;;9.22;52.45;97994.41;5057608;28;20076;-62
2023/04/01 10:58:19;;;;;;;13.40;8.13;;;;;;;9.28;51.85;98001.28;5053530;28;20063;-63
2023/04/01 11:01:22;;;;;;;13.52;7.40;;;;;;;9.37;51.63;97998.13;5053435;28;20059;-62
2023/04/01 11:04:26;;;;;;;15.77;6.80;;;;;;;9.46;52.31;97999.97;5030308;28;20049;-63
2023/04/01 11:07:30;;;;;;;10.98;6.78;;;;;;;9.37;51.48;98003.41;5047813;28;20084;-61
2023/04/01 11:10:22;;;;;;;10.45;5.90;;;;;;;9.62;51.22;97998.16;5035074;28;20549;-63
2023/04/01 11:13:11;;;;;;;8.70;5.60;;;;;;;9.82;49.50;97991.25;5049727;28;20061;-61
2023/04/01 11:16:02;;;;;;;10.13;6.13;;;;;;;9.85;49.07;97994.16;5051781;28;20055;-62
2023/04/01 11:19:07;;;;;;;9.60;6.22;;;;;;;9.66;49.55;98001.06;5053016;28;20044;-63
2023/04/01 11:22:09;;;;;;;10.38;6.32;;;;;;;9.53;49.63;97989.94;5052682;28;20052;-61
2023/04/01 11:25:16;;;;;;;10.00;6.10;;;;;;;9.61;49.10;98001.03;5066884;28;20041;-62
2023/04/01 11:28:12;;;;;;;8.45;5.18;;;;;;;9.57;49.03;98008.72;5046037;28;20060;-62
2023/04/01 11:30:59;;;;;;;10.55;5.22;;;;;;;9.51;50.28;98007.94;5052684;28;20063;-62
2023/04/01 11:33:47;;;;;;;12.88;5.85;;;;;;;9.63;50.48;97998.94;5050861;28;20113;-62
2023/04/01 11:36:19;;;;;;;7.85;5.05;;;;;;;9.81;50.98;98000.25;5050531;28;20041;-63
2023/04/01 11:38:54;;;;;;;11.60;6.32;;;;;;;9.86;49.56;98008.97;5051238;28;20080;-62
2023/04/01 11:42:07;;;;;;;10.75;5.85;;;;;;;9.99;50.04;98013.72;5029983;28;20069;-62
2023/04/01 11:45:28;;;;;;;11.93;6.90;;;;;;;10.21;50.44;98010.78;5030007;28;20057;-62
2023/04/01 11:48:10;;;;;;;10.88;6.18;;;;;;;10.08;48.34;98011.31;5013299;28;20510;-61
2023/04/01 11:50:44;;;;;;;11.05;7.78;;;;;;;10.00;48.86;98017.19;5050387;28;20095;-61
2023/04/01 11:53:25;;;;;;;14.57;7.13;;;;;;;10.02;48.26;98020.34;5050789;28;20132;-61
2023/04/01 11:56:11;;;;;;;9.55;6.00;;;;;;;10.02;49.01;98004.44;5056693;28;20075;-62
2023/04/01 11:58:56;;;;;;;11.95;6.15;;;;;;;9.91;49.67;98010.81;5070980;28;20040;-63
2023/04/01 12:01:43;;;;;;;8.65;5.85;;;;;;;9.92;49.18;98002.63;5071979;28;20040;-61
2023/04/01 12:04:54;;;;;;;9.43;5.35;;;;;;;9.98;49.06;98012.13;5071746;28;20067;-62
2023/04/01 12:07:25;;;;;;;;;;;;;;;10.08;48.43;98011.31;5072459;28;20052;-61
2023/04/01 12:10:17;;;;;;;8.90;5.25;;;;;;;10.12;47.17;98016.91;5072096;28;19924;-62
2023/04/01 12:13:01;;;;;;;9.02;5.60;;;;;;;10.23;47.50;98013.16;5071275;28;20052;-62
2023/04/01 12:16:04;;;;;;;11.70;6.32;;;;;;;10.26;47.68;98012.63;5071736;28;20048;-60
2023/04/01 12:18:53;;;;;;;11.77;6.20;;;;;;;10.28;48.17;98013.19;5069880;28;20088;-61
2023/04/01 12:21:33;;;;;;;11.05;5.93;;;;;;;10.35;46.87;98015.53;5071477;28;20429;-60
2023/04/01 12:24:17;;;;;;;8.43;5.50;;;;;;;10.35;47.63;98018.19;5070309;28;20047;-61